KESF/ESF METAR and TAF weather

Enter ICAO airport designator
Station Type Date Time Source
KESF METAR 2021/08/05 03:53 UTC NOAA

KESF 050353Z AUTO 00000KT 5SM BR CLR 21/20 A3005 RMK AO2 SLP172 T02110200


Station Type Date Time Source
KESF Decoded METAR 2021/08/05 03:53 UTC NOAA

ALEXANDRIA ESLER RGNL AIRPORT , LA, United States (KESF) 31-24N 092-18W 28M
Aug 04, 2021 - 11:53 PM EDT / 2021.08.05 0353 UTC
Wind: Calm:0
Visibility: 5 mile(s):0
Sky conditions: clear
Weather: mist
Temperature: 70.0 F (21.1 C)
Dew Point: 68.0 F (20.0 C)
Relative Humidity: 93%
Pressure (altimeter): 30.05 in. Hg (1017 hPa)
ob: KESF 050353Z AUTO 00000KT 5SM BR CLR 21/20 A3005 RMK AO2 SLP172 T02110200
cycle: 4

Station Type Date Time Source
KESF TAF UTC NOAA

Error!

Example: see airport list